Air Navigation Services of Czech Republic  
Last data update:  09.12.2016 15:35:13 UTC Česká verze
   METEO Page displayed:  09.12.2016 15:36:46 UTC  
help
METAR EDDB 091520Z 25009KT 9999 SCT013 BKN029 09/07 Q1024 NOSIG=
METAR EDDC 091520Z 27008KT 230V310 8000 -DZ BKN008 07/06 Q1026 NOSIG=
METAR EDDE 091520Z 24011KT 9999 SCT009 BKN036 07/06 Q1028 TEMPO BKN009=
METAR EDDF 091520Z 23004KT 9999 FEW030 BKN049 04/03 Q1031 NOSIG=
METAR EDDM 091520Z 22004KT 9999 SCT024 BKN040 07/M01 Q1031 NOSIG=
METAR EDDN 091520Z 23004KT 190V250 9999 BKN014 06/03 Q1031 NOSIG=
METAR EDDP 091520Z 26010KT 9999 FEW013 BKN020 BKN100 07/05 Q1027 NOSIG=
METAR EDDT 091520Z 26009KT 9999 BKN014 BKN025 09/08 Q1024 TEMPO BKN015=
METAR EDQM 091520Z 23005KT 180V290 6000 BKN005 OVC007 02/00 Q1029=
METAR EPBY 091530Z 28015KT 9999 FEW016 BKN020 OVC023 08/06 Q1018 =
METAR EPGD 091530Z 29023KT 9999 BKN014 08/05 Q1014 =
METAR EPKK 091530Z 25019KT 9999 BKN017 06/03 Q1023 =
METAR EPKT 091530Z 23012KT 5000 -DZ BR FEW005 OVC011 04/02 Q1022 =
METAR EPLL 091530Z 26013KT 2500 -RA BR BKN003 06/06 Q1020 =
METAR EPPO 091530Z 28014KT 9999 FEW008 OVC025 08/06 Q1021 =
METAR EPRZ 091530Z 23015KT 2500 -RADZ BR SCT003 OVC012 03/02 Q1020 R27/19//95 =
METAR EPWA 091530Z 28013KT 9999 -DZ OVC007 07/05 Q1016 NOSIG=
METAR EPWR 091530Z 28019KT 9999 BKN008 08/06 Q1023 =
METAR LHBP 091530Z 24007KT 9999 FEW029 03/M02 Q1027 NOSIG=
METAR LHSM 091515Z 32001KT 3500 BR FEW040 M00/M03 Q1029=
METAR LKCV 091500Z 29006KT 9999 OVC021 07/04 Q1027 NOSIG=
METAR LKKB 091500Z 24013KT 9999 SCT022 BKN046 07/03 Q1027 NOSIG=
METAR LKKU 091500Z 22002KT 8000 OVC022 01/M01 Q1028=
METAR LKKV 091530Z 25009KT 220V290 8000 OVC006 03/02 Q1028 R29///////=
METAR LKLN NIL
METAR LKMT 091530Z 22016KT 9999 BKN036 03/01 Q1025 NOSIG=
METAR LKNA 091500Z 30010KT 9999 OVC039 05/02 Q1026 NOSIG=
METAR LKPD 091500Z VRB02KT 6000 BKN020 BKN046 02/01 Q1027 NOSIG=
METAR LKPR 091530Z 25016KT 9999 BKN019 06/02 Q1027 NOSIG=
METAR LKTB 091530Z 06002KT 9000 OVC022 00/M01 Q1027 NOSIG=
METAR LKVO 091400Z 24011KT 9999 BKN021 BKN040 08/04 Q1027=
METAR LOWI 091520Z 13003KT 080V170 CAVOK 04/M05 Q1032 NOSIG=
METAR LOWL 091520Z 31009KT 9999 FEW018 BKN048 05/M02 Q1031 NOSIG=
METAR LOWS 091520Z 16005KT CAVOK 04/M04 Q1031 NOSIG=
METAR LOWW 091520Z 28017KT 9999 FEW038 BKN050 10/M00 Q1028 NOSIG=
METAR LZIB 091530Z 05004KT 020V090 8000 NSC 01/01 Q1028 NOSIG=
METAR LZKZ 091530Z 19004KT 3000 BR OVC003 M02/M03 Q1026 NOSIG=
METAR LZPP 091530Z 31002KT 4500 BR BKN028 00/M01 Q1028=
METAR LZSL 091530Z 24009KT 9999 BKN026 04/M01 Q1025=
METAR LZTT 091530Z 25010KT 210V290 9999 SCT013 BKN060 04/01 Q1022 NOSIG=
METAR LZZI 091530Z VRB01KT 4000 BR OVC018 M00/M02 Q1027=